Time;durP1;ratioP1;P1;durP2;ratioP2;P2;SDS_P1;SDS_P2;PMS_P1;PMS_P2;Temp;Humidity;BMP_temperature;BMP_pressure;BME280_temperature;BME280_humidity;BME280_pressure;Samples;Min_cycle;Max_cycle;Signal;HPM_P1;HPM_P2
2022/05/06 00:02:07;;;;;;;20.23;12.30;;;9.80;99.90;;;;;;5051236;28;20492;-80
2022/05/06 00:04:33;;;;;;;21.52;12.65;;;9.70;99.90;;;;;;5031881;28;20418;-80
2022/05/06 00:06:59;;;;;;;18.27;11.35;;;9.70;99.90;;;;;;5051290;28;20060;-79
2022/05/06 00:09:24;;;;;;;19.65;12.30;;;9.60;99.90;;;;;;5051968;28;20040;-80
2022/05/06 00:11:51;;;;;;;28.13;12.65;;;9.50;99.90;;;;;;5050196;28;20094;-80
2022/05/06 00:14:18;;;;;;;19.83;12.23;;;9.50;99.90;;;;;;5050892;28;20052;-80
2022/05/06 00:16:44;;;;;;;21.05;12.05;;;9.50;99.90;;;;;;5034317;28;20041;-80
2022/05/06 00:19:10;;;;;;;20.75;13.10;;;9.40;99.90;;;;;;5051030;28;20057;-80
2022/05/06 00:21:36;;;;;;;21.58;12.52;;;9.40;99.90;;;;;;5033539;28;20097;-80
2022/05/06 00:24:02;;;;;;;24.35;12.95;;;9.40;99.90;;;;;;5029579;28;20133;-80
2022/05/06 00:26:28;;;;;;;17.38;11.32;;;9.60;99.90;;;;;;5051769;28;20162;-80
2022/05/06 00:28:54;;;;;;;21.05;12.25;;;9.30;99.90;;;;;;5051566;28;20049;-80
2022/05/06 00:31:19;;;;;;;19.75;11.52;;;9.50;99.90;;;;;;5052654;28;20037;-80
2022/05/06 00:33:46;;;;;;;20.40;11.43;;;9.30;99.90;;;;;;5051007;28;20041;-79
2022/05/06 00:36:14;;;;;;;18.48;11.52;;;9.30;99.90;;;;;;5051209;28;20064;-80
2022/05/06 00:38:42;;;;;;;17.75;10.88;;;9.30;99.90;;;;;;5051119;28;20483;-80
2022/05/06 00:41:07;;;;;;;21.00;11.52;;;9.30;99.90;;;;;;5034752;28;20770;-80
2022/05/06 00:43:33;;;;;;;17.85;10.93;;;9.30;99.90;;;;;;5052645;28;20053;-80
2022/05/06 00:45:59;;;;;;;21.08;11.93;;;9.30;99.90;;;;;;5052008;28;20040;-80
2022/05/06 00:48:30;;;;;;;17.10;11.73;;;9.20;99.90;;;;;;5052107;28;20041;-80
2022/05/06 00:51:01;;;;;;;18.20;10.85;;;9.20;99.90;;;;;;5033511;28;20154;-80
2022/05/06 00:53:27;;;;;;;18.25;11.07;;;9.20;99.90;;;;;;5032336;28;20145;-79
2022/05/06 00:55:53;;;;;;;18.20;11.52;;;9.20;99.90;;;;;;5050455;28;20495;-80
2022/05/06 00:58:20;;;;;;;18.58;11.35;;;9.20;99.90;;;;;;5052378;28;20048;-80
2022/05/06 01:00:46;;;;;;;18.27;11.20;;;9.20;99.90;;;;;;5049438;28;20033;-80
2022/05/06 01:03:12;;;;;;;20.88;11.48;;;9.10;99.90;;;;;;5047271;28;20045;-80
2022/05/06 01:05:41;;;;;;;18.42;11.23;;;9.10;99.90;;;;;;5032085;28;20048;-80
2022/05/06 01:08:08;;;;;;;20.63;11.40;;;9.00;99.90;;;;;;5030460;28;20045;-80
2022/05/06 01:10:35;;;;;;;17.55;10.98;;;9.10;99.90;;;;;;5051384;28;20036;-79
2022/05/06 01:13:01;;;;;;;18.10;11.80;;;9.00;99.90;;;;;;5050704;28;20040;-79
2022/05/06 01:15:28;;;;;;;17.95;12.18;;;9.00;99.90;;;;;;5049442;28;20032;-80
2022/05/06 01:17:56;;;;;;;18.40;11.55;;;9.00;99.90;;;;;;5032880;28;20274;-80
2022/05/06 01:20:24;;;;;;;18.65;11.38;;;8.90;99.90;;;;;;5052325;28;20397;-80
2022/05/06 01:22:58;;;;;;;18.80;11.43;;;8.90;99.90;;;;;;5026827;28;20041;-80
2022/05/06 01:25:24;;;;;;;;;;;8.90;99.90;;;;;;5032981;28;20049;-80
2022/05/06 01:27:55;;;;;;;20.20;11.35;;;8.80;99.90;;;;;;5049437;28;20011;-79
2022/05/06 01:30:38;;;;;;;21.60;12.40;;;8.80;99.90;;;;;;5048196;28;20041;-80
2022/05/06 01:33:06;;;;;;;20.80;12.73;;;8.70;99.90;;;;;;5050837;28;20073;-80
2022/05/06 01:35:45;;;;;;;21.50;12.48;;;8.70;99.90;;;;;;5050714;28;20480;-80
2022/05/06 01:38:19;;;;;;;20.60;12.85;;;8.70;99.90;;;;;;5050772;28;20529;-80
2022/05/06 01:40:55;;;;;;;23.88;11.65;;;8.60;99.90;;;;;;5050302;28;20091;-80
2022/05/06 01:43:22;;;;;;;22.42;13.13;;;8.60;99.90;;;;;;5048851;28;20040;-81
2022/05/06 01:45:50;;;;;;;22.50;11.65;;;8.60;99.90;;;;;;5050059;28;20551;-79
2022/05/06 01:48:16;;;;;;;18.10;11.52;;;8.60;99.90;;;;;;5031580;28;20049;-78
2022/05/06 01:50:44;;;;;;;20.80;11.80;;;8.60;99.90;;;;;;5031861;28;20084;-78
2022/05/06 01:53:10;;;;;;;21.70;13.02;;;8.60;99.90;;;;;;5033240;28;20049;-79
2022/05/06 01:55:36;;;;;;;21.23;12.90;;;8.60;99.90;;;;;;5050907;28;20041;-79
2022/05/06 01:58:04;;;;;;;19.27;12.23;;;8.60;99.90;;;;;;5062591;28;20069;-79
2022/05/06 02:00:29;;;;;;;21.63;12.95;;;8.60;99.90;;;;;;5049318;28;20076;-79
2022/05/06 02:02:56;;;;;;;21.85;13.32;;;8.50;99.90;;;;;;5032080;28;20048;-78
2022/05/06 02:05:23;;;;;;;19.08;12.82;;;8.50;99.90;;;;;;5046995;28;20060;-78
2022/05/06 02:07:50;;;;;;;19.02;12.60;;;8.50;99.90;;;;;;5029863;28;20045;-79
2022/05/06 02:10:17;;;;;;;19.80;12.45;;;9.10;99.90;;;;;;5050368;28;20174;-79
2022/05/06 02:12:45;;;;;;;21.80;13.18;;;8.40;99.90;;;;;;5049304;28;20045;-78
2022/05/06 02:15:11;;;;;;;25.15;12.82;;;8.40;99.90;;;;;;5032204;28;20032;-79
2022/05/06 02:17:41;;;;;;;20.38;12.35;;;8.40;99.90;;;;;;5050932;28;20047;-79
2022/05/06 02:20:09;;;;;;;23.52;12.95;;;8.40;99.90;;;;;;5049768;28;20049;-79
2022/05/06 02:22:36;;;;;;;21.67;12.85;;;8.40;99.90;;;;;;5045397;28;20049;-79
2022/05/06 02:25:04;;;;;;;25.08;13.90;;;8.30;99.90;;;;;;5031175;28;20532;-78
2022/05/06 02:27:30;;;;;;;24.15;14.15;;;8.30;99.90;;;;;;5050631;28;20488;-79
2022/05/06 02:35:26;;;;;;;20.52;13.70;;;8.30;99.90;;;;;;5048151;28;20056;-79
2022/05/06 02:37:51;;;;;;;23.73;14.60;;;8.30;99.90;;;;;;5030895;28;20045;-79
2022/05/06 02:40:17;;;;;;;23.30;15.00;;;8.30;99.90;;;;;;5048675;28;20067;-78
2022/05/06 02:42:43;;;;;;;25.85;15.48;;;8.20;99.90;;;;;;5034298;28;20178;-79
2022/05/06 02:45:10;;;;;;;29.10;15.27;;;8.20;99.90;;;;;;5049209;28;20053;-79
2022/05/06 02:47:36;;;;;;;23.95;14.73;;;8.20;99.90;;;;;;5048969;28;20033;-79
2022/05/06 02:50:03;;;;;;;27.73;13.93;;;8.20;99.90;;;;;;5047008;28;22091;-79
2022/05/06 02:52:28;;;;;;;23.83;13.82;;;8.20;99.90;;;;;;5063810;28;20047;-79
2022/05/06 02:54:54;;;;;;;21.88;13.38;;;8.10;99.90;;;;;;5049116;28;20132;-80
2022/05/06 02:57:19;;;;;;;22.15;12.32;;;8.10;99.90;;;;;;5031432;28;20049;-80
2022/05/06 02:59:45;;;;;;;21.02;13.07;;;8.10;99.90;;;;;;5045405;28;20048;-80
2022/05/06 03:02:11;;;;;;;22.70;12.55;;;8.10;99.90;;;;;;5048730;28;20166;-79
2022/05/06 03:04:36;;;;;;;22.60;13.38;;;8.10;99.90;;;;;;5060921;28;20471;-79
2022/05/06 03:07:06;;;;;;;21.45;12.75;;;8.10;99.90;;;;;;5047099;28;20041;-80
2022/05/06 03:09:33;;;;;;;20.25;12.70;;;8.10;99.90;;;;;;5049233;28;20681;-79
2022/05/06 03:11:59;;;;;;;23.92;13.55;;;8.40;99.90;;;;;;5048999;28;20128;-80
2022/05/06 03:14:25;;;;;;;21.33;12.93;;;8.00;99.90;;;;;;5048615;28;20589;-79
2022/05/06 03:16:50;;;;;;;25.05;14.52;;;8.00;99.90;;;;;;5048890;28;20037;-80
2022/05/06 03:19:16;;;;;;;24.25;13.60;;;8.00;99.90;;;;;;5049510;28;20044;-80
2022/05/06 03:21:45;;;;;;;21.00;13.52;;;7.90;99.90;;;;;;5047770;28;20147;-79
2022/05/06 03:24:11;;;;;;;28.67;14.75;;;7.90;99.90;;;;;;5044007;28;20043;-80
2022/05/06 03:26:37;;;;;;;24.52;14.68;;;7.90;99.90;;;;;;5049781;28;20124;-79
2022/05/06 03:29:03;;;;;;;22.17;13.63;;;7.90;99.90;;;;;;5061708;28;20102;-79
2022/05/06 03:31:28;;;;;;;22.10;14.20;;;7.90;99.90;;;;;;5048506;28;20037;-79
2022/05/06 03:33:54;;;;;;;24.45;14.60;;;7.80;99.90;;;;;;5048613;28;20049;-79
2022/05/06 03:36:24;;;;;;;28.60;14.32;;;7.80;99.90;;;;;;5028925;28;20474;-79
2022/05/06 03:38:50;;;;;;;22.42;13.38;;;7.80;99.90;;;;;;5027832;28;20049;-80
2022/05/06 03:41:15;;;;;;;23.75;13.98;;;7.70;99.90;;;;;;5046752;28;20067;-80
2022/05/06 03:43:41;;;;;;;23.50;14.25;;;7.70;99.90;;;;;;5051253;28;20045;-80
2022/05/06 03:46:07;;;;;;;21.17;13.63;;;7.70;99.90;;;;;;5047397;28;21052;-79
2022/05/06 03:48:36;;;;;;;23.33;14.00;;;7.70;99.90;;;;;;5049281;28;20406;-79
2022/05/06 03:53:47;;;;;;;35.78;19.90;;;7.80;99.90;;;;;;5047055;28;20051;-79
2022/05/06 03:56:13;;;;;;;42.08;21.42;;;7.80;99.90;;;;;;5048002;28;20052;-78
2022/05/06 03:58:38;;;;;;;56.08;20.65;;;7.80;99.90;;;;;;5048657;28;20037;-79
2022/05/06 04:01:04;;;;;;;57.55;25.73;;;8.40;99.90;;;;;;5045731;28;20086;-79
2022/05/06 04:03:31;;;;;;;59.58;25.88;;;8.00;99.90;;;;;;5045237;28;20087;-79
2022/05/06 04:05:57;;;;;;;76.10;22.92;;;8.00;99.90;;;;;;5047410;28;20038;-79
2022/05/06 04:08:23;;;;;;;198.10;26.25;;;8.10;99.90;;;;;;5030628;28;20049;-79
2022/05/06 04:10:49;;;;;;;142.35;26.83;;;8.10;99.90;;;;;;5030038;28;20124;-79
2022/05/06 04:13:18;;;;;;;173.43;25.30;;;8.20;99.90;;;;;;5048134;28;20056;-79
2022/05/06 04:15:45;;;;;;;205.70;29.23;;;8.20;99.90;;;;;;5048715;28;20037;-79
2022/05/06 04:18:11;;;;;;;174.93;28.95;;;8.20;99.90;;;;;;5045701;28;20132;-79
2022/05/06 04:23:30;;;;;;;165.50;26.23;;;8.20;99.90;;;;;;5043169;28;20041;-79
2022/05/06 04:25:56;;;;;;;88.88;22.40;;;8.20;99.90;;;;;;5029661;28;20369;-80
2022/05/06 04:28:23;;;;;;;181.60;24.67;;;8.30;99.90;;;;;;5047565;28;20110;-79
2022/05/06 04:30:50;;;;;;;128.80;21.20;;;8.30;99.90;;;;;;5030863;28;20041;-79
2022/05/06 04:33:16;;;;;;;155.77;24.58;;;8.30;99.90;;;;;;5032836;28;20047;-80
2022/05/06 04:35:42;;;;;;;91.32;23.08;;;8.40;99.90;;;;;;5052465;28;20072;-80
2022/05/06 04:38:08;;;;;;;95.55;20.92;;;8.40;99.90;;;;;;5051769;28;20053;-79
2022/05/06 04:40:34;;;;;;;172.77;23.17;;;8.40;99.90;;;;;;5051530;28;20095;-79
2022/05/06 04:43:03;;;;;;;86.60;19.63;;;8.40;99.90;;;;;;5050004;28;20392;-80
2022/05/06 04:45:29;;;;;;;141.90;24.42;;;8.40;99.90;;;;;;5050364;28;20068;-79
2022/05/06 04:47:55;;;;;;;62.20;19.77;;;8.40;99.90;;;;;;5050939;28;20503;-80
2022/05/06 04:50:21;;;;;;;90.30;18.35;;;8.40;99.90;;;;;;5050357;28;20087;-79
2022/05/06 04:52:47;;;;;;;144.82;21.30;;;8.40;99.90;;;;;;5051648;28;20439;-79
2022/05/06 04:55:12;;;;;;;101.57;21.98;;;8.30;99.90;;;;;;5053860;28;20120;-80
2022/05/06 04:57:38;;;;;;;131.98;20.95;;;9.00;99.90;;;;;;5051812;28;20124;-78
2022/05/06 05:00:05;;;;;;;80.38;20.73;;;8.40;99.90;;;;;;5047187;28;20049;-79
2022/05/06 05:02:31;;;;;;;106.07;21.10;;;8.40;99.90;;;;;;5034572;28;20049;-79
2022/05/06 05:04:58;;;;;;;102.90;19.80;;;8.40;99.90;;;;;;5046383;28;20055;-79
2022/05/06 05:07:24;;;;;;;98.00;19.88;;;8.50;99.90;;;;;;5050859;28;20037;-79
2022/05/06 05:09:50;;;;;;;34.10;17.65;;;8.50;99.90;;;;;;5048642;28;20044;-79
2022/05/06 05:12:16;;;;;;;31.08;17.05;;;8.50;99.90;;;;;;5050628;28;20045;-79
2022/05/06 05:14:42;;;;;;;30.40;17.35;;;8.50;99.90;;;;;;5051608;28;20240;-79
2022/05/06 05:17:09;;;;;;;29.50;18.08;;;8.80;99.90;;;;;;5051524;28;20895;-78
2022/05/06 05:19:35;;;;;;;32.22;17.88;;;8.60;99.90;;;;;;5052431;28;20065;-78
2022/05/06 05:22:01;;;;;;;32.25;17.58;;;8.70;99.90;;;;;;5050703;28;20041;-78
2022/05/06 05:24:27;;;;;;;36.25;17.02;;;8.70;99.90;;;;;;5028684;28;20045;-80
2022/05/06 05:26:57;;;;;;;39.83;17.98;;;8.70;99.90;;;;;;5049013;28;20500;-79
2022/05/06 05:29:23;;;;;;;34.35;17.15;;;8.80;99.90;;;;;;5048101;28;20575;-80
2022/05/06 05:31:50;;;;;;;27.98;16.52;;;8.80;99.90;;;;;;5064541;28;20448;-79
2022/05/06 05:34:15;;;;;;;29.60;17.73;;;8.90;99.90;;;;;;5051916;28;20190;-79
2022/05/06 05:36:41;;;;;;;28.27;16.02;;;9.20;99.90;;;;;;5050293;28;20104;-80
2022/05/06 05:39:07;;;;;;;40.85;15.82;;;8.80;99.90;;;;;;5031043;28;20221;-79
2022/05/06 05:41:33;;;;;;;34.25;16.88;;;8.90;99.90;;;;;;5031441;28;20052;-79
2022/05/06 05:49:28;;;;;;;59.05;18.17;;;8.90;99.90;;;;;;5050266;28;20496;-78
2022/05/06 05:51:54;;;;;;;43.78;16.60;;;8.90;99.90;;;;;;5029545;28;20045;-78
2022/05/06 05:54:19;;;;;;;27.73;15.38;;;8.80;99.90;;;;;;5032938;28;20045;-79
2022/05/06 05:56:45;;;;;;;32.65;16.67;;;8.90;99.90;;;;;;5048909;28;20080;-78
2022/05/06 05:59:11;;;;;;;32.15;17.30;;;9.00;99.90;;;;;;5031378;28;20055;-78
2022/05/06 06:01:37;;;;;;;40.22;16.90;;;9.20;99.90;;;;;;5050164;28;20049;-79
2022/05/06 06:04:03;;;;;;;70.57;18.55;;;9.50;99.90;;;;;;5043793;28;20049;-80
2022/05/06 06:06:29;;;;;;;35.17;16.48;;;9.40;99.90;;;;;;5050060;28;20045;-81
2022/05/06 06:08:55;;;;;;;48.42;19.08;;;9.60;99.90;;;;;;5049165;28;20057;-81
2022/05/06 06:11:20;;;;;;;64.97;17.42;;;9.60;99.90;;;;;;5048468;28;20514;-80
2022/05/06 06:13:46;;;;;;;49.40;18.02;;;9.70;99.90;;;;;;5031401;28;20369;-81
2022/05/06 06:16:12;;;;;;;40.50;19.98;;;9.70;99.90;;;;;;5049034;28;20498;-79
2022/05/06 06:18:37;;;;;;;61.28;18.75;;;9.70;99.90;;;;;;5046065;28;20110;-79
2022/05/06 06:21:03;;;;;;;48.97;17.13;;;9.70;99.90;;;;;;5047636;28;20052;-81
2022/05/06 06:23:32;;;;;;;50.45;17.15;;;9.70;99.90;;;;;;5025998;28;20566;-81
2022/05/06 06:25:58;;;;;;;51.03;20.50;;;9.80;99.90;;;;;;5047255;28;20403;-81
2022/05/06 06:28:23;;;;;;;67.72;20.67;;;9.80;99.90;;;;;;5048881;28;20041;-81
2022/05/06 06:30:50;;;;;;;66.03;21.73;;;9.80;99.90;;;;;;5051399;28;20090;-80
2022/05/06 06:33:16;;;;;;;46.45;21.67;;;9.80;99.90;;;;;;5030864;28;20464;-80
2022/05/06 06:35:41;;;;;;;46.25;19.70;;;9.70;99.90;;;;;;5044723;28;20045;-80
2022/05/06 06:38:07;;;;;;;52.63;22.30;;;9.80;99.90;;;;;;5051292;28;20442;-80
2022/05/06 06:40:33;;;;;;;41.33;22.55;;;9.80;99.90;;;;;;5049742;28;20029;-80
2022/05/06 06:43:03;;;;;;;30.52;18.80;;;9.80;99.90;;;;;;5049208;28;20147;-80
2022/05/06 06:45:29;;;;;;;74.78;24.02;;;9.80;99.90;;;;;;5050262;28;20044;-81
2022/05/06 06:47:55;;;;;;;55.30;22.00;;;9.90;99.90;;;;;;5031489;28;20051;-80
2022/05/06 06:50:21;;;;;;;31.55;18.63;;;9.90;99.90;;;;;;5048620;28;20049;-80
2022/05/06 06:52:47;;;;;;;37.70;21.67;;;10.00;99.90;;;;;;5043347;28;20045;-80
2022/05/06 06:55:13;;;;;;;39.60;21.10;;;10.10;99.90;;;;;;5048135;28;20087;-80
2022/05/06 06:57:39;;;;;;;32.70;18.40;;;10.20;99.90;;;;;;5037278;28;20088;-81
2022/05/06 07:00:05;;;;;;;31.08;20.23;;;10.20;99.90;;;;;;5046888;28;20033;-81
2022/05/06 07:02:31;;;;;;;30.58;18.10;;;10.30;99.90;;;;;;5051264;28;20048;-80
2022/05/06 07:04:58;;;;;;;31.30;19.55;;;10.50;99.90;;;;;;5051187;28;20399;-80
2022/05/06 07:12:52;;;;;;;35.40;21.05;;;11.00;99.90;;;;;;5033303;28;20136;-81
2022/05/06 07:15:18;;;;;;;33.40;19.90;;;11.20;99.90;;;;;;5050671;28;20129;-81
2022/05/06 07:17:44;;;;;;;34.03;20.17;;;11.30;99.90;;;;;;5051261;28;20120;-81
2022/05/06 07:20:10;;;;;;;36.25;21.02;;;11.40;99.90;;;;;;5066544;28;20140;-81
2022/05/06 07:22:36;;;;;;;32.50;21.05;;;11.50;99.90;;;;;;5046470;28;20041;-81
2022/05/06 07:25:02;;;;;;;34.00;20.55;;;11.60;99.90;;;;;;5032793;28;20041;-81
2022/05/06 07:27:29;;;;;;;39.30;23.60;;;11.70;99.90;;;;;;5050428;28;20044;-81
2022/05/06 07:29:54;;;;;;;31.45;19.45;;;11.80;99.90;;;;;;5032811;28;20048;-81
2022/05/06 07:32:20;;;;;;;32.75;21.42;;;11.90;99.90;;;;;;5049477;28;20404;-80
2022/05/06 07:34:45;;;;;;;37.58;22.60;;;11.90;99.90;;;;;;5032452;28;20044;-80
2022/05/06 07:37:11;;;;;;;39.67;24.05;;;12.00;99.90;;;;;;5033195;28;20045;-80
2022/05/06 07:39:37;;;;;;;38.95;23.85;;;12.10;99.90;;;;;;5050892;28;20102;-80
2022/05/06 07:42:02;;;;;;;39.17;23.92;;;12.20;99.90;;;;;;5032723;28;20087;-80
2022/05/06 07:44:28;;;;;;;27.70;18.50;;;12.30;99.90;;;;;;5050446;28;20541;-79
2022/05/06 07:46:54;;;;;;;36.58;20.98;;;12.40;99.90;;;;;;5051265;28;20098;-80
2022/05/06 07:49:19;;;;;;;38.83;22.60;;;12.50;99.90;;;;;;5050215;28;20127;-80
2022/05/06 07:51:45;;;;;;;39.33;23.73;;;12.70;99.90;;;;;;5032572;28;20487;-80
2022/05/06 07:54:11;;;;;;;43.22;24.42;;;12.80;99.90;;;;;;5051169;28;20055;-80
2022/05/06 07:56:37;;;;;;;35.30;21.85;;;12.80;99.90;;;;;;5049652;28;20041;-80
2022/05/06 07:59:03;;;;;;;36.60;21.55;;;12.90;99.90;;;;;;5050736;28;20395;-80
2022/05/06 08:06:58;;;;;;;34.80;21.58;;;13.20;99.90;;;;;;5036786;28;20056;-81
2022/05/06 08:09:23;;;;;;;39.47;21.98;;;13.30;99.90;;;;;;5054975;28;20041;-80
2022/05/06 08:11:49;;;;;;;31.98;19.75;;;13.50;99.90;;;;;;5035978;28;20472;-81
2022/05/06 08:14:16;;;;;;;30.75;18.52;;;13.60;99.90;;;;;;5049034;28;20053;-81
2022/05/06 08:16:43;;;;;;;27.17;17.50;;;13.80;99.90;;;;;;5035600;28;20040;-80
2022/05/06 08:19:09;;;;;;;27.55;17.27;;;14.00;99.90;;;;;;5054112;28;20049;-80
2022/05/06 08:21:35;;;;;;;27.27;17.25;;;14.20;99.90;;;;;;5054131;28;20048;-81
2022/05/06 08:24:01;;;;;;;29.10;17.92;;;14.40;99.90;;;;;;5048976;28;20488;-80
2022/05/06 08:26:27;;;;;;;24.85;16.63;;;14.70;99.90;;;;;;5036194;28;20052;-81
2022/05/06 08:28:52;;;;;;;24.30;15.70;;;15.20;99.90;;;;;;5054426;28;20145;-82
2022/05/06 08:31:18;;;;;;;25.00;15.90;;;15.20;99.90;;;;;;5053538;28;20053;-82
2022/05/06 08:33:43;;;;;;;21.67;14.02;;;15.40;99.90;;;;;;5053967;28;20040;-82
2022/05/06 08:36:09;;;;;;;22.13;14.65;;;15.60;99.90;;;;;;5054129;28;20049;-82
2022/05/06 08:38:35;;;;;;;24.25;14.68;;;15.70;99.90;;;;;;5045339;28;20410;-82
2022/05/06 08:41:01;;;;;;;19.50;13.00;;;15.90;99.90;;;;;;5034425;28;20100;-82
2022/05/06 08:43:26;;;;;;;21.02;13.27;;;16.00;99.90;;;;;;5040597;28;20037;-81
2022/05/06 08:51:29;;;;;;;;;;;16.00;99.90;;;;;;5054064;28;20053;-81
2022/05/06 08:53:55;;;;;;;16.63;11.50;;;15.90;99.90;;;;;;5053661;28;19925;-81
2022/05/06 08:56:20;;;;;;;19.30;12.30;;;15.80;99.90;;;;;;5054142;28;20045;-81
2022/05/06 08:58:46;;;;;;;16.67;11.60;;;15.80;99.90;;;;;;5052936;28;20049;-81
2022/05/06 09:01:13;;;;;;;17.85;11.52;;;15.80;99.90;;;;;;5035874;28;20098;-82
2022/05/06 09:03:44;;;;;;;15.65;10.25;;;15.80;99.90;;;;;;5052730;28;20143;-81
2022/05/06 09:06:23;;;;;;;16.02;10.57;;;15.80;99.90;;;;;;5052157;28;20045;-81
2022/05/06 09:08:51;;;;;;;14.05;10.38;;;15.70;99.90;;;;;;5052571;28;20041;-81
2022/05/06 09:11:17;;;;;;;15.00;10.15;;;15.80;99.90;;;;;;5053565;28;20051;-82
2022/05/06 09:13:49;;;;;;;13.93;9.68;;;16.00;99.90;;;;;;5033015;28;20060;-82
2022/05/06 09:19:18;;;;;;;15.32;9.05;;;16.30;99.90;;;;;;5052351;28;20072;-81
2022/05/06 09:22:02;;;;;;;10.48;7.18;;;16.50;99.90;;;;;;5034862;28;20132;-81
2022/05/06 09:24:29;;;;;;;10.18;7.10;;;16.60;99.90;;;;;;5063761;28;20111;-81
2022/05/06 09:27:00;;;;;;;10.60;7.05;;;16.80;99.90;;;;;;5052668;28;20049;-81
2022/05/06 09:29:30;;;;;;;10.90;7.28;;;16.90;99.90;;;;;;5052925;28;20057;-81
2022/05/06 09:32:11;;;;;;;10.77;6.75;;;17.00;99.90;;;;;;5043400;28;20049;-81
2022/05/06 09:34:37;;;;;;;10.60;7.35;;;17.10;99.90;;;;;;5032609;28;20047;-81
2022/05/06 09:37:03;;;;;;;10.55;7.28;;;17.10;99.90;;;;;;5052426;28;20432;-81
2022/05/06 09:39:28;;;;;;;9.60;6.63;;;17.20;99.90;;;;;;5043455;28;20043;-81
2022/05/06 09:42:03;;;;;;;12.25;6.90;;;17.20;99.90;;;;;;5051645;28;20049;-81
2022/05/06 09:44:29;;;;;;;9.45;6.68;;;17.30;99.90;;;;;;5032808;28;20064;-81
2022/05/06 09:47:12;;;;;;;8.52;6.13;;;17.20;99.90;;;;;;5015417;28;20061;-81
2022/05/06 09:49:44;;;;;;;8.75;6.13;;;17.30;99.90;;;;;;5016068;28;20046;-81
2022/05/06 09:52:14;;;;;;;9.70;6.22;;;17.30;99.90;;;;;;5052872;28;20049;-81
2022/05/06 09:54:46;;;;;;;10.10;5.55;;;17.40;99.90;;;;;;5034547;28;20040;-81
2022/05/06 09:57:13;;;;;;;8.98;5.43;;;17.50;99.90;;;;;;5052030;28;20033;-81
2022/05/06 09:59:39;;;;;;;5.68;4.15;;;17.60;99.90;;;;;;5051992;28;20145;-82
2022/05/06 10:02:06;;;;;;;6.00;3.95;;;17.70;99.90;;;;;;5052195;28;20041;-81
2022/05/06 10:04:31;;;;;;;6.20;4.47;;;17.80;99.90;;;;;;5052277;28;20056;-82
2022/05/06 10:07:00;;;;;;;10.88;4.97;;;17.90;99.90;;;;;;5034388;28;20040;-81
2022/05/06 10:09:29;;;;;;;6.97;4.90;;;17.90;99.90;;;;;;5033949;28;20102;-82
2022/05/06 10:11:58;;;;;;;7.03;4.25;;;18.10;99.90;;;;;;5034416;28;20060;-81
2022/05/06 10:14:24;;;;;;;7.35;3.88;;;18.10;99.90;;;;;;5034107;28;20488;-81
2022/05/06 10:16:50;;;;;;;9.23;4.40;;;18.30;99.90;;;;;;5051388;28;20041;-82
2022/05/06 10:19:37;;;;;;;8.93;4.32;;;18.50;99.90;;;;;;5051127;28;20535;-82
2022/05/06 10:22:04;;;;;;;9.45;4.68;;;18.70;99.90;;;;;;5052073;28;20488;-82
2022/05/06 10:24:49;;;;;;;7.30;4.68;;;18.90;99.90;;;;;;5034225;28;20107;-82
2022/05/06 10:33:18;;;;;;;5.93;4.32;;;19.50;99.90;;;;;;5048020;28;20067;-82
2022/05/06 10:35:46;;;;;;;7.00;4.65;;;19.60;99.90;;;;;;5033376;28;20120;-81
2022/05/06 10:38:17;;;;;;;6.68;4.20;;;19.70;99.90;;;;;;5066394;28;20381;-82
2022/05/06 10:41:02;;;;;;;5.13;3.25;;;19.90;99.90;;;;;;5034100;28;20488;-82
2022/05/06 10:43:40;;;;;;;4.47;3.35;;;19.90;99.90;;;;;;5051599;28;20120;-82
2022/05/06 10:46:05;;;;;;;10.88;4.38;;;19.90;99.10;;;;;;5051199;28;20408;-82
2022/05/06 10:48:31;;;;;;;7.68;4.72;;;19.80;99.50;;;;;;5051242;28;20041;-82
2022/05/06 10:51:24;;;;;;;7.10;4.47;;;19.80;99.90;;;;;;5047083;28;20041;-81
2022/05/06 10:53:50;;;;;;;4.88;3.45;;;19.80;99.90;;;;;;5051680;28;20048;-82
2022/05/06 10:56:16;;;;;;;5.80;4.00;;;19.80;99.90;;;;;;5051782;28;20045;-82
2022/05/06 10:58:42;;;;;;;6.82;4.00;;;19.90;99.90;;;;;;5032944;28;20041;-82
2022/05/06 11:01:15;;;;;;;7.80;4.95;;;19.90;99.60;;;;;;5051007;28;20044;-82
2022/05/06 11:03:52;;;;;;;6.82;4.78;;;19.80;98.90;;;;;;5033872;28;20052;-82
2022/05/06 11:06:24;;;;;;;6.05;4.38;;;19.80;98.90;;;;;;5032430;28;20086;-82
2022/05/06 11:08:50;;;;;;;8.90;3.97;;;19.90;99.50;;;;;;5051167;28;20045;-82
2022/05/06 11:11:18;;;;;;;6.38;4.20;;;20.10;99.50;;;;;;5051398;28;20045;-82
2022/05/06 11:13:47;;;;;;;6.60;3.17;;;20.30;98.90;;;;;;5050783;28;20090;-82
2022/05/06 11:16:15;;;;;;;6.97;3.42;;;20.40;97.30;;;;;;5051179;28;20384;-82
2022/05/06 11:18:42;;;;;;;6.03;3.85;;;20.50;97.20;;;;;;5050573;28;20497;-82
2022/05/06 11:21:22;;;;;;;5.47;3.75;;;20.60;96.80;;;;;;5051150;28;20048;-82
2022/05/06 11:23:48;;;;;;;6.93;3.10;;;20.50;95.50;;;;;;5027972;28;20045;-82
2022/05/06 11:26:26;;;;;;;5.53;3.10;;;20.50;97.00;;;;;;5051031;28;20055;-82
2022/05/06 11:29:04;;;;;;;5.07;3.00;;;20.60;96.30;;;;;;5050366;28;20099;-82
2022/05/06 11:31:31;;;;;;;4.30;2.22;;;20.60;95.40;;;;;;5044914;28;20091;-83
2022/05/06 11:34:01;;;;;;;5.05;2.65;;;20.70;95.80;;;;;;5050375;28;20091;-83
2022/05/06 11:36:27;;;;;;;4.78;2.20;;;20.90;95.80;;;;;;5050630;28;20063;-83
2022/05/06 11:38:53;;;;;;;232.63;17.52;;;21.00;93.50;;;;;;5050715;28;20415;-83
2022/05/06 11:41:19;;;;;;;19.70;4.40;;;21.20;94.10;;;;;;5045150;28;20077;-82
2022/05/06 11:43:46;;;;;;;7.25;2.60;;;21.20;93.00;;;;;;5050727;28;20045;-83
2022/05/06 11:49:00;;;;;;;8.00;2.15;;;21.50;93.90;;;;;;5030837;28;20045;-83
2022/05/06 11:51:47;;;;;;;4.43;2.38;;;21.60;94.00;;;;;;5047150;28;20395;-83
2022/05/06 11:54:15;;;;;;;4.88;2.50;;;21.70;93.60;;;;;;5050654;28;20128;-83
2022/05/06 11:56:42;;;;;;;3.75;2.00;;;21.80;93.80;;;;;;5050159;28;20048;-83
2022/05/06 11:59:09;;;;;;;4.18;2.10;;;21.80;93.10;;;;;;5050611;28;20041;-82
2022/05/06 12:01:37;;;;;;;4.53;2.10;;;21.80;93.20;;;;;;5050519;28;20043;-83
2022/05/06 12:04:07;;;;;;;5.43;2.22;;;21.90;93.10;;;;;;5050777;28;20111;-83
2022/05/06 12:06:37;;;;;;;4.40;2.05;;;22.00;93.20;;;;;;5050418;28;20033;-83
2022/05/06 12:09:12;;;;;;;4.68;1.88;;;22.10;93.30;;;;;;5050170;28;20041;-83
2022/05/06 12:11:42;;;;;;;4.82;2.00;;;22.10;93.60;;;;;;5050370;28;20519;-83
2022/05/06 12:14:17;;;;;;;4.53;2.10;;;22.20;93.30;;;;;;5050643;28;20053;-83
2022/05/06 12:16:57;;;;;;;3.58;1.80;;;22.30;93.00;;;;;;5031856;28;20076;-83
2022/05/06 12:19:40;;;;;;;5.45;2.55;;;22.50;93.30;;;;;;5050572;28;20053;-83
2022/05/06 12:22:14;;;;;;;3.63;1.98;;;22.50;92.80;;;;;;5050222;28;20423;-84
2022/05/06 12:24:48;;;;;;;4.40;1.95;;;22.50;92.90;;;;;;5045041;28;20037;-83
2022/05/06 12:27:27;;;;;;;3.65;2.00;;;22.60;92.10;;;;;;5049633;28;20080;-83
2022/05/06 12:29:54;;;;;;;5.32;2.30;;;22.50;90.30;;;;;;5049274;28;20072;-83
2022/05/06 12:32:20;;;;;;;4.47;2.08;;;22.50;91.70;;;;;;5032876;28;20045;-84
2022/05/06 12:34:45;;;;;;;3.95;2.30;;;22.40;92.90;;;;;;5050710;28;20472;-83
2022/05/06 12:37:15;;;;;;;4.90;2.33;;;22.40;93.20;;;;;;5031912;28;20451;-83
2022/05/06 12:39:48;;;;;;;5.47;2.08;;;22.40;93.20;;;;;;5032186;28;20127;-84
2022/05/06 12:42:15;;;;;;;3.80;1.85;;;22.40;92.00;;;;;;5050371;28;20051;-84
2022/05/06 12:44:41;;;;;;;5.30;2.00;;;22.40;92.80;;;;;;5049598;28;20052;-84
2022/05/06 12:50:03;;;;;;;4.70;1.60;;;22.60;91.50;;;;;;5050295;28;20116;-84
2022/05/06 12:52:29;;;;;;;3.78;1.95;;;22.70;92.40;;;;;;5052028;28;20122;-84
2022/05/06 12:54:54;;;;;;;8.05;1.70;;;22.90;92.00;;;;;;5054465;28;20080;-84
2022/05/06 12:57:20;;;;;;;3.38;1.70;;;22.90;92.00;;;;;;5053699;28;20073;-84
2022/05/06 12:59:45;;;;;;;3.45;1.42;;;23.00;92.50;;;;;;5050088;28;20053;-84
2022/05/06 13:02:11;;;;;;;3.20;1.38;;;23.00;92.80;;;;;;5042004;28;20469;-84
2022/05/06 13:04:37;;;;;;;3.88;1.30;;;22.90;92.80;;;;;;5053154;28;20527;-84
2022/05/06 13:07:03;;;;;;;4.20;1.48;;;22.80;92.70;;;;;;5052753;28;20049;-84
2022/05/06 13:09:29;;;;;;;6.35;1.70;;;22.50;92.00;;;;;;5053789;28;20742;-84
2022/05/06 13:11:55;;;;;;;4.57;1.90;;;22.30;92.00;;;;;;5053653;28;20049;-84
2022/05/06 13:14:21;;;;;;;5.65;1.77;;;22.10;92.10;;;;;;5053071;28;20045;-84
2022/05/06 13:16:48;;;;;;;3.67;1.55;;;21.80;92.90;;;;;;5035403;28;20044;-84
2022/05/06 13:19:13;;;;;;;3.72;1.55;;;21.80;94.20;;;;;;5052741;28;20065;-83
2022/05/06 13:21:39;;;;;;;6.07;1.50;;;21.70;93.90;;;;;;5052809;28;20098;-84
2022/05/06 13:24:05;;;;;;;5.18;1.38;;;21.80;93.30;;;;;;5030450;28;20439;-84
2022/05/06 13:26:31;;;;;;;2.40;1.15;;;21.80;93.00;;;;;;5052201;28;20732;-84
2022/05/06 13:28:57;;;;;;;3.95;1.27;;;22.00;92.80;;;;;;5035267;28;20045;-84